Terminal Aerodrome Forecast
Issued by NWS Blacksburg, VA

Home | Current Version | Previous Version | Text Only | Print | Product List | Glossary On
Versions: 1 2 3 4 5 6 7 8 9 10 11 12 13 14 15 16 17 18 19
000
FTUS41 KRNK 291839 AAA
TAFBLF
TAF AMD
KBLF 291839Z 2919/3018 06006KT P6SM SCT035 BKN050
     FM292000 03008KT P6SM VCTS BKN035CB
     FM292300 03005KT P6SM SCT040
     FM300200 09003KT P6SM SCT050
     FM301500 05006KT P6SM SCT100=

USA.gov is the U.S. government's official web portal to all federal, state and local government web resources and services.